Nunobiki Maru — JD3399 — position and weather

sailwx.info

Track history (hours):
 
Tides and Currents Weather Stations Pressure Air Temp Water Temp Dewpoint Dewpoint Depression Visibility Wind Speed Wind Dir Waves Ship Positions

Nunobiki Maru

Last reported at 2018-Jun-18 22:39 UTC. Time now 2018-Jun-19 20:09 UTC.
Position N 34°40' E 135°14'.

Length 34 m; draft 3.8 m.

Type: Tug. MMSI: 431003839.

Date/timePositionNaut miles runAvg speedWind from/ knotsBaromVisibWave heightAir tempDewpointWater temp
2018-Jun-18 22:39N 34°40' E 135°14'0 1.5
2018-Jun-18 22:30N 34°40' E 135°14'1 2.3
2018-Jun-18 22:00N 34°40' E 135°15'0 1.0
2018-Jun-18 21:30N 34°40' E 135°16'1 1.8
2018-Jun-18 20:58N 34°39' E 135°15'1 1.8
2018-Jun-18 20:31N 34°40' E 135°14'0 0.0
2018-Jun-18 20:01N 34°40' E 135°14'0 0.0
2018-Jun-18 19:31N 34°40' E 135°14'0 0.0
2018-Jun-18 19:00N 34°40' E 135°14'0 0.0
2018-Jun-18 18:30N 34°40' E 135°14'0 0.0
2018-Jun-18 18:00N 34°40' E 135°14'0 0.0
2018-Jun-18 17:30N 34°40' E 135°14'0 0.0
2018-Jun-18 17:00N 34°40' E 135°14'0 0.0
2018-Jun-18 16:30N 34°40' E 135°14'0 0.0
2018-Jun-18 16:00N 34°40' E 135°14'0 0.0
2018-Jun-18 15:29N 34°40' E 135°14'0 0.0
2018-Jun-18 15:00N 34°40' E 135°14'0 0.0
2018-Jun-18 14:30N 34°40' E 135°14'1 1.4
2018-Jun-18 14:00N 34°40' E 135°14'0 0.4
2018-Jun-18 13:30N 34°40' E 135°14'1 2.2
2018-Jun-18 13:00N 34°40' E 135°13'0 0.0
2018-Jun-18 12:30N 34°40' E 135°13'0 0.0
2018-Jun-18 12:00N 34°40' E 135°13'0 0.0
2018-Jun-18 11:30N 34°40' E 135°13'0 0.0
2018-Jun-18 11:00N 34°40' E 135°13'0 0.0
2018-Jun-18 10:30N 34°40' E 135°13'0 0.0
2018-Jun-18 10:00N 34°40' E 135°13'0 0.0
2018-Jun-18 09:30N 34°40' E 135°13'2 3.4
2018-Jun-18 09:00N 34°39' E 135°15'0 0.3
2018-Jun-18 08:30N 34°39' E 135°15'1 2.7
2018-Jun-18 08:00N 34°39' E 135°16'1 2.6
2018-Jun-18 07:30N 34°39' E 135°15'0 0.0
2018-Jun-18 07:00N 34°39' E 135°15'0 0.0
2018-Jun-18 06:29N 34°39' E 135°15'0 0.0
2018-Jun-18 06:00N 34°39' E 135°15'0 0.0
2018-Jun-18 05:30N 34°39' E 135°15'1 1.5
2018-Jun-18 05:00N 34°40' E 135°15'3 5.7
2018-Jun-18 04:30N 34°41' E 135°12'0 0.4
2018-Jun-18 04:00N 34°41' E 135°12'0 0.1
2018-Jun-18 03:30N 34°41' E 135°12'0 0.0
2018-Jun-18 03:00N 34°41' E 135°12'0 0.0
2018-Jun-18 02:30N 34°41' E 135°12'0 0.0
2018-Jun-18 02:00N 34°41' E 135°12'0 0.0
2018-Jun-18 01:30N 34°41' E 135°12'0 0.0
2018-Jun-18 01:00N 34°41' E 135°12'0 0.0
2018-Jun-18 00:30N 34°41' E 135°12'0 0.0
2018-Jun-18 00:00N 34°41' E 135°12'0 0.0
2018-Jun-17 23:29N 34°41' E 135°12'0 0.0
2018-Jun-17 23:00N 34°41' E 135°12'2 0.1
2018-Jun-17 01:09N 34°40' E 135°14'0 0.0
2018-Jun-17 01:00N 34°40' E 135°14'1 2.0
2018-Jun-17 00:30N 34°40' E 135°15'2 3.4
2018-Jun-17 00:00N 34°41' E 135°13'1 1.1
2018-Jun-16 23:28N 34°41' E 135°12'0 0.0
2018-Jun-16 22:58N 34°41' E 135°12'0 0.0
2018-Jun-16 22:28N 34°41' E 135°12'0 0.0
2018-Jun-16 13:13N 34°41' E 135°12'2 7.4
2018-Jun-16 13:00N 34°41' E 135°14'1 1.7
2018-Jun-16 12:30N 34°41' E 135°15'1 2.3
2018-Jun-16 12:00N 34°40' E 135°16'3 6.2
2018-Jun-16 11:30N 34°41' E 135°12'0 0.0
2018-Jun-16 10:55N 34°41' E 135°12'0 0.0
2018-Jun-16 10:25N 34°41' E 135°12'0 0.0
2018-Jun-16 09:55N 34°41' E 135°12'0 0.0
2018-Jun-16 09:25N 34°41' E 135°12'0 0.0
2018-Jun-16 08:49N 34°41' E 135°12'0 0.0
2018-Jun-16 08:19N 34°41' E 135°12'0 0.0
2018-Jun-16 07:55N 34°41' E 135°12'0 0.0
2018-Jun-16 07:25N 34°41' E 135°12'0 0.0
2018-Jun-16 06:55N 34°41' E 135°12'0 0.5
2018-Jun-16 06:29N 34°41' E 135°12'1 2.2
2018-Jun-16 06:00N 34°41' E 135°14'1 2.1
2018-Jun-16 05:30N 34°40' E 135°15'1 2.2
2018-Jun-16 04:56N 34°39' E 135°15'0 0.0
2018-Jun-16 04:26N 34°39' E 135°15'0 0.0
2018-Jun-16 03:56N 34°39' E 135°15'0 0.0
2018-Jun-16 03:26N 34°39' E 135°15'0 0.0
2018-Jun-16 02:56N 34°39' E 135°15'0 0.0
2018-Jun-16 02:20N 34°39' E 135°15'0 0.0
2018-Jun-16 01:02N 34°39' E 135°15'0 0.1
2018-Jun-16 00:56N 34°39' E 135°15'0 0.0
2018-Jun-16 00:26N 34°39' E 135°15'0 0.0
2018-Jun-15 23:56N 34°39' E 135°15'0 0.0
2018-Jun-15 23:26N 34°39' E 135°15'0 0.0
2018-Jun-15 22:56N 34°39' E 135°15'0 0.4
2018-Jun-15 22:30N 34°39' E 135°15'1 2.3
2018-Jun-15 22:00N 34°39' E 135°16'2 3.1
2018-Jun-15 21:30N 34°40' E 135°15'3 5.2
2018-Jun-15 21:00N 34°41' E 135°12'0 0.0
2018-Jun-15 20:30N 34°41' E 135°12'1 0.1
2018-Jun-15 08:26N 34°41' E 135°13'1 1.3
2018-Jun-15 08:00N 34°41' E 135°12'0 0.2
2018-Jun-15 07:30N 34°41' E 135°12'0 0.1
2018-Jun-15 03:17N 34°41' E 135°12'2 8.3
2018-Jun-15 03:00N 34°40' E 135°15'1 1.9
2018-Jun-15 02:30N 34°39' E 135°15'1 1.6
2018-Jun-15 02:00N 34°40' E 135°15'1 2.7
2018-Jun-15 01:29N 34°40' E 135°13'0 0.0
2018-Jun-15 01:00N 34°40' E 135°13'0 0.0
2018-Jun-15 00:30N 34°40' E 135°13'0 0.0
2018-Jun-15 00:00N 34°40' E 135°13'0 0.0
2018-Jun-14 23:30N 34°40' E 135°13'2 3.3
2018-Jun-14 23:00N 34°41' E 135°15'2 3.9
2018-Jun-14 22:30N 34°41' E 135°17'1 2.1
2018-Jun-14 22:00N 34°40' E 135°18'0 0.8
2018-Jun-14 21:30N 34°41' E 135°18'4 8.6
2018-Jun-14 21:00N 34°41' E 135°12'0 0.6
2018-Jun-14 20:30N 34°41' E 135°12'0 0.0
2018-Jun-13 23:12N 34°41' E 135°12'2 8.8
2018-Jun-13 23:00N 34°41' E 135°14'1 2.2
2018-Jun-13 22:30N 34°41' E 135°16'1 2.0
2018-Jun-13 22:00N 34°40' E 135°15'1 2.4
2018-Jun-13 21:30N 34°40' E 135°14'0 0.2
2018-Jun-13 20:43N 34°40' E 135°14'0 0.0
2018-Jun-13 20:25N 34°40' E 135°14'0 0.0
2018-Jun-13 19:55N 34°40' E 135°14'0 0.0
2018-Jun-13 19:25N 34°40' E 135°14'0 0.0
2018-Jun-13 18:55N 34°40' E 135°14'0 0.0
2018-Jun-13 18:19N 34°40' E 135°14'0 0.0
2018-Jun-13 17:55N 34°40' E 135°14'0 0.0
2018-Jun-13 17:25N 34°40' E 135°14'0 0.0
2018-Jun-13 16:54N 34°40' E 135°14'1 2.2
2018-Jun-13 16:30N 34°39' E 135°15'0 0.7
2018-Jun-13 15:58N 34°40' E 135°14'0 0.0
2018-Jun-13 15:04N 34°40' E 135°14'0 0.0
2018-Jun-13 14:58N 34°40' E 135°14'0 0.3
2018-Jun-13 14:30N 34°40' E 135°14'1 1.2
2018-Jun-13 14:00N 34°40' E 135°15'1 2.2
2018-Jun-13 13:30N 34°39' E 135°16'2 3.3
2018-Jun-13 13:00N 34°40' E 135°14'0 0.2
2018-Jun-13 12:30N 34°40' E 135°14'0 0.3
2018-Jun-13 12:00N 34°40' E 135°14'0 0.8
2018-Jun-13 11:30N 34°40' E 135°15'1 2.1
2018-Jun-13 10:56N 34°40' E 135°13'0 0.0
2018-Jun-13 10:14N 34°40' E 135°13'0 0.0
2018-Jun-13 09:56N 34°40' E 135°13'0 0.0
2018-Jun-13 09:26N 34°40' E 135°13'0 0.0
2018-Jun-13 08:50N 34°40' E 135°13'0 0.0
2018-Jun-13 08:20N 34°40' E 135°13'0 0.0
2018-Jun-13 07:56N 34°40' E 135°13'0 0.0
2018-Jun-13 07:26N 34°40' E 135°13'0 0.0
2018-Jun-13 06:56N 34°40' E 135°13'0 0.0
2018-Jun-13 06:26N 34°40' E 135°13'2 4.0
2018-Jun-13 05:58N 34°41' E 135°15'2 4.5
2018-Jun-13 05:30N 34°41' E 135°13'0 0.8
2018-Jun-13 04:58N 34°41' E 135°12'0 0.0
2018-Jun-13 04:28N 34°41' E 135°12'0 0.0
2018-Jun-13 03:58N 34°41' E 135°12'0 0.0
2018-Jun-13 03:28N 34°41' E 135°12'0 0.0
2018-Jun-13 02:59N 34°41' E 135°12'0 0.0
2018-Jun-13 02:29N 34°41' E 135°12'0 0.0
2018-Jun-13 01:59N 34°41' E 135°12'0 0.0
2018-Jun-13 01:22N 34°41' E 135°12'0 0.0
2018-Jun-13 00:58N 34°41' E 135°12'2 4.4
2018-Jun-13 00:30N 34°40' E 135°14'0 0.4
2018-Jun-13 00:00N 34°40' E 135°14'1 2.9
2018-Jun-12 23:30N 34°39' E 135°16'1 2.0
2018-Jun-12 23:00N 34°39' E 135°15'0 0.0
2018-Jun-12 22:30N 34°39' E 135°15'0 0.0
2018-Jun-12 22:00N 34°39' E 135°15'0 0.0
2018-Jun-12 21:30N 34°39' E 135°15'2 4.0
2018-Jun-12 21:00N 34°41' E 135°15'3 5.0
2018-Jun-12 20:30N 34°41' E 135°12'0 0.0
2018-Jun-12 20:00N 34°41' E 135°12'0 0.0
2018-Jun-12 09:59N 34°41' E 135°12'3 5.4
2018-Jun-12 09:30N 34°41' E 135°16'1 1.1
2018-Jun-12 09:00N 34°40' E 135°15'1 1.9
2018-Jun-12 08:30N 34°39' E 135°15'1 1.6
2018-Jun-12 08:00N 34°40' E 135°15'2 5.0
2018-Jun-12 07:30N 34°41' E 135°17'0 0.1
2018-Jun-12 07:00N 34°41' E 135°17'4 7.9
2018-Jun-12 06:30N 34°41' E 135°13'0 0.8
2018-Jun-12 05:56N 34°41' E 135°12'0 0.0
2018-Jun-12 05:26N 34°41' E 135°12'0 0.0
2018-Jun-12 04:56N 34°41' E 135°12'0 0.0
2018-Jun-12 04:20N 34°41' E 135°12'0 0.0
2018-Jun-12 03:56N 34°41' E 135°12'0 0.0
2018-Jun-12 03:26N 34°41' E 135°12'0 0.0
2018-Jun-12 02:44N 34°41' E 135°12'0 0.0
2018-Jun-12 02:26N 34°41' E 135°12'0 0.0
2018-Jun-12 01:50N 34°41' E 135°12'0 0.0
2018-Jun-12 01:26N 34°41' E 135°12'0 0.0
2018-Jun-12 00:56N 34°41' E 135°12'0 0.0
2018-Jun-12 00:26N 34°41' E 135°12'0 0.0
2018-Jun-11 23:56N 34°41' E 135°12'0 0.0
2018-Jun-11 23:26N 34°41' E 135°12'1 1.4
2018-Jun-11 23:00N 34°41' E 135°13'2 3.8
2018-Jun-11 22:31N 34°41' E 135°15'1 2.0
2018-Jun-11 22:00N 34°40' E 135°15'0 0.7
2018-Jun-11 21:30N 34°40' E 135°15'3 5.3
2018-Jun-11 21:00N 34°41' E 135°12'0 0.0
2018-Jun-11 20:28N 34°41' E 135°12'0 0.0
2018-Jun-11 20:00N 34°41' E 135°12'0 0.0
2018-Jun-11 19:30N 34°41' E 135°12'0 0.0
2018-Jun-11 18:59N 34°41' E 135°12'0 0.0
2018-Jun-11 18:30N 34°41' E 135°12'0 0.0
2018-Jun-11 17:57N 34°41' E 135°12'0 0.0
2018-Jun-11 17:29N 34°41' E 135°12'1 3.0
2018-Jun-11 17:00N 34°41' E 135°14'2 3.3
2018-Jun-11 16:30N 34°39' E 135°15'0 0.7
2018-Jun-11 16:00N 34°40' E 135°15'1 1.9
2018-Jun-11 15:30N 34°40' E 135°14'0 0.0
2018-Jun-11 15:00N 34°40' E 135°14'0 0.0
2018-Jun-11 14:30N 34°40' E 135°14'0 0.0
2018-Jun-11 14:00N 34°40' E 135°14'0 0.0
2018-Jun-11 13:30N 34°40' E 135°14'0 0.0
2018-Jun-11 13:00N 34°40' E 135°14'1 1.0
2018-Jun-11 12:30N 34°41' E 135°14'1 2.8
2018-Jun-11 11:59N 34°41' E 135°12'0 0.0
2018-Jun-11 11:30N 34°41' E 135°12'0 0.0
2018-Jun-11 10:59N 34°41' E 135°12'0 0.0
2018-Jun-11 10:30N 34°41' E 135°12'0 0.0
2018-Jun-11 09:59N 34°41' E 135°12'2 4.2
2018-Jun-11 09:30N 34°41' E 135°15'1 1.8
2018-Jun-11 09:00N 34°42' E 135°15'1 1.9
2018-Jun-11 08:30N 34°41' E 135°14'3 5.8
2018-Jun-11 08:00N 34°41' E 135°17'0 0.3
2018-Jun-11 07:30N 34°41' E 135°17'1 2.5
2018-Jun-11 07:00N 34°40' E 135°18'2 4.6
2018-Jun-11 06:30N 34°41' E 135°16'3 5.8
2018-Jun-11 06:00N 34°41' E 135°12'0 0.0
2018-Jun-11 05:30N 34°41' E 135°12'0 0.0
2018-Jun-11 05:00N 34°41' E 135°12'0 0.0
2018-Jun-11 04:30N 34°41' E 135°12'0 0.0
2018-Jun-11 04:00N 34°41' E 135°12'0 0.0
2018-Jun-11 03:30N 34°41' E 135°12'0 0.0
2018-Jun-11 03:00N 34°41' E 135°12'0 0.0
2018-Jun-11 02:27N 34°41' E 135°12'0 0.0
2018-Jun-11 01:59N 34°41' E 135°12'0 0.0
2018-Jun-11 01:28N 34°41' E 135°12'0 0.0
2018-Jun-11 01:00N 34°41' E 135°12'0 0.0
2018-Jun-11 00:30N 34°41' E 135°12'0 0.0
2018-Jun-10 23:59N 34°41' E 135°12'1 1.1
2018-Jun-10 23:30N 34°41' E 135°13'2 4.7
2018-Jun-10 23:00N 34°42' E 135°15'1 2.4
2018-Jun-10 22:30N 34°41' E 135°15'1 1.2
2018-Jun-10 22:00N 34°40' E 135°15'3 4.7
2018-Jun-10 21:26N 34°41' E 135°12'0 0.0
2018-Jun-10 21:00N 34°41' E 135°12'0 0.0
2018-Jun-10 20:30N 34°41' E 135°12'0 0.0
2018-Jun-10 20:00N 34°41' E 135°12'1 0.1
2018-Jun-09 23:02N 34°41' E 135°14'012.2
2018-Jun-09 23:00N 34°41' E 135°14'1 2.1
2018-Jun-09 22:30N 34°42' E 135°15'2 3.6
2018-Jun-09 22:00N 34°40' E 135°15'2 3.3
2018-Jun-09 21:28N 34°41' E 135°13'1 1.9
2018-Jun-09 20:58N 34°41' E 135°12'0 0.0
2018-Jun-09 14:09N 34°41' E 135°12'1 8.4
2018-Jun-09 14:00N 34°41' E 135°14'1 2.3
2018-Jun-09 13:31N 34°40' E 135°14'1 2.6
2018-Jun-09 13:01N 34°39' E 135°15'1 1.5
2018-Jun-09 12:30N 34°40' E 135°15'0 0.8
2018-Jun-09 12:00N 34°39' E 135°15'1 2.1
2018-Jun-09 11:30N 34°39' E 135°16'2 4.4
2018-Jun-09 11:00N 34°40' E 135°14'2 3.7
2018-Jun-09 10:28N 34°41' E 135°12'0 0.0
2018-Jun-09 10:00N 34°41' E 135°12'0 0.0
2018-Jun-09 09:31N 34°41' E 135°12'0 0.0
2018-Jun-09 09:00N 34°41' E 135°12'0 0.3
2018-Jun-09 08:30N 34°41' E 135°12'2 3.8
2018-Jun-09 08:01N 34°40' E 135°14'1 2.5
2018-Jun-09 07:30N 34°41' E 135°13'1 1.9
2018-Jun-09 07:00N 34°41' E 135°12'0 0.0
2018-Jun-09 06:31N 34°41' E 135°12'0 0.0
2018-Jun-09 06:00N 34°41' E 135°12'0 0.0
2018-Jun-09 05:28N 34°41' E 135°12'0 0.0
2018-Jun-09 04:58N 34°41' E 135°12'0 0.0
2018-Jun-09 04:30N 34°41' E 135°12'0 0.0
2018-Jun-09 04:01N 34°41' E 135°12'0 0.0
2018-Jun-09 03:31N 34°41' E 135°12'0 0.0
2018-Jun-09 03:00N 34°41' E 135°12'0 0.0
2018-Jun-09 02:30N 34°41' E 135°12'1 2.0
2018-Jun-09 02:00N 34°41' E 135°13'1 1.1
2018-Jun-09 01:30N 34°41' E 135°14'1 2.0
2018-Jun-09 01:00N 34°40' E 135°15'1 2.4
2018-Jun-09 00:29N 34°40' E 135°13'0 0.0
2018-Jun-09 00:00N 34°40' E 135°13'2 3.1
2018-Jun-08 23:30N 34°40' E 135°15'2 4.1
2018-Jun-08 23:00N 34°41' E 135°17'  
Track history (hours):
 
Tides and Currents Weather Stations Pressure Air Temp Water Temp Dewpoint Dewpoint Depression Visibility Wind Speed Wind Dir Waves Ship Positions

Nunobiki Maru

Last reported at 2018-Jun-18 22:39 UTC. Time now 2018-Jun-19 20:09 UTC.
Position N 34°40' E 135°14'.

Length 34 m; draft 3.8 m.

Type: Tug. MMSI: 431003839.

Date/timePositionNaut miles runAvg speedWind from/ knotsBaromVisibWave heightAir tempDewpointWater temp
2018-Jun-18 22:39N 34°40' E 135°14'0 1.5
2018-Jun-18 22:30N 34°40' E 135°14'1 2.3
2018-Jun-18 22:00N 34°40' E 135°15'0 1.0
2018-Jun-18 21:30N 34°40' E 135°16'1 1.8
2018-Jun-18 20:58N 34°39' E 135°15'1 1.8
2018-Jun-18 20:31N 34°40' E 135°14'0 0.0
2018-Jun-18 20:01N 34°40' E 135°14'0 0.0
2018-Jun-18 19:31N 34°40' E 135°14'0 0.0
2018-Jun-18 19:00N 34°40' E 135°14'0 0.0
2018-Jun-18 18:30N 34°40' E 135°14'0 0.0
2018-Jun-18 18:00N 34°40' E 135°14'0 0.0
2018-Jun-18 17:30N 34°40' E 135°14'0 0.0
2018-Jun-18 17:00N 34°40' E 135°14'0 0.0
2018-Jun-18 16:30N 34°40' E 135°14'0 0.0
2018-Jun-18 16:00N 34°40' E 135°14'0 0.0
2018-Jun-18 15:29N 34°40' E 135°14'0 0.0
2018-Jun-18 15:00N 34°40' E 135°14'0 0.0
2018-Jun-18 14:30N 34°40' E 135°14'1 1.4
2018-Jun-18 14:00N 34°40' E 135°14'0 0.4
2018-Jun-18 13:30N 34°40' E 135°14'1 2.2
2018-Jun-18 13:00N 34°40' E 135°13'0 0.0
2018-Jun-18 12:30N 34°40' E 135°13'0 0.0
2018-Jun-18 12:00N 34°40' E 135°13'0 0.0
2018-Jun-18 11:30N 34°40' E 135°13'0 0.0
2018-Jun-18 11:00N 34°40' E 135°13'0 0.0
2018-Jun-18 10:30N 34°40' E 135°13'0 0.0
2018-Jun-18 10:00N 34°40' E 135°13'0 0.0
2018-Jun-18 09:30N 34°40' E 135°13'2 3.4
2018-Jun-18 09:00N 34°39' E 135°15'0 0.3
2018-Jun-18 08:30N 34°39' E 135°15'1 2.7
2018-Jun-18 08:00N 34°39' E 135°16'1 2.6
2018-Jun-18 07:30N 34°39' E 135°15'0 0.0
2018-Jun-18 07:00N 34°39' E 135°15'0 0.0
2018-Jun-18 06:29N 34°39' E 135°15'0 0.0
2018-Jun-18 06:00N 34°39' E 135°15'0 0.0
2018-Jun-18 05:30N 34°39' E 135°15'1 1.5
2018-Jun-18 05:00N 34°40' E 135°15'3 5.7
2018-Jun-18 04:30N 34°41' E 135°12'0 0.4
2018-Jun-18 04:00N 34°41' E 135°12'0 0.1
2018-Jun-18 03:30N 34°41' E 135°12'0 0.0
2018-Jun-18 03:00N 34°41' E 135°12'0 0.0
2018-Jun-18 02:30N 34°41' E 135°12'0 0.0
2018-Jun-18 02:00N 34°41' E 135°12'0 0.0
2018-Jun-18 01:30N 34°41' E 135°12'0 0.0
2018-Jun-18 01:00N 34°41' E 135°12'0 0.0
2018-Jun-18 00:30N 34°41' E 135°12'0 0.0
2018-Jun-18 00:00N 34°41' E 135°12'0 0.0
2018-Jun-17 23:29N 34°41' E 135°12'0 0.0
2018-Jun-17 23:00N 34°41' E 135°12'2 0.1
2018-Jun-17 01:09N 34°40' E 135°14'0 0.0
2018-Jun-17 01:00N 34°40' E 135°14'1 2.0
2018-Jun-17 00:30N 34°40' E 135°15'2 3.4
2018-Jun-17 00:00N 34°41' E 135°13'1 1.1
2018-Jun-16 23:28N 34°41' E 135°12'0 0.0
2018-Jun-16 22:58N 34°41' E 135°12'0 0.0
2018-Jun-16 22:28N 34°41' E 135°12'0 0.0
2018-Jun-16 13:13N 34°41' E 135°12'2 7.4
2018-Jun-16 13:00N 34°41' E 135°14'1 1.7
2018-Jun-16 12:30N 34°41' E 135°15'1 2.3
2018-Jun-16 12:00N 34°40' E 135°16'3 6.2
2018-Jun-16 11:30N 34°41' E 135°12'0 0.0
2018-Jun-16 10:55N 34°41' E 135°12'0 0.0
2018-Jun-16 10:25N 34°41' E 135°12'0 0.0
2018-Jun-16 09:55N 34°41' E 135°12'0 0.0
2018-Jun-16 09:25N 34°41' E 135°12'0 0.0
2018-Jun-16 08:49N 34°41' E 135°12'0 0.0
2018-Jun-16 08:19N 34°41' E 135°12'0 0.0
2018-Jun-16 07:55N 34°41' E 135°12'0 0.0
2018-Jun-16 07:25N 34°41' E 135°12'0 0.0
2018-Jun-16 06:55N 34°41' E 135°12'0 0.5
2018-Jun-16 06:29N 34°41' E 135°12'1 2.2
2018-Jun-16 06:00N 34°41' E 135°14'1 2.1
2018-Jun-16 05:30N 34°40' E 135°15'1 2.2
2018-Jun-16 04:56N 34°39' E 135°15'0 0.0
2018-Jun-16 04:26N 34°39' E 135°15'0 0.0
2018-Jun-16 03:56N 34°39' E 135°15'0 0.0
2018-Jun-16 03:26N 34°39' E 135°15'0 0.0
2018-Jun-16 02:56N 34°39' E 135°15'0 0.0
2018-Jun-16 02:20N 34°39' E 135°15'0 0.0
2018-Jun-16 01:02N 34°39' E 135°15'0 0.1
2018-Jun-16 00:56N 34°39' E 135°15'0 0.0
2018-Jun-16 00:26N 34°39' E 135°15'0 0.0
2018-Jun-15 23:56N 34°39' E 135°15'0 0.0
2018-Jun-15 23:26N 34°39' E 135°15'0 0.0
2018-Jun-15 22:56N 34°39' E 135°15'0 0.4
2018-Jun-15 22:30N 34°39' E 135°15'1 2.3
2018-Jun-15 22:00N 34°39' E 135°16'2 3.1
2018-Jun-15 21:30N 34°40' E 135°15'3 5.2
2018-Jun-15 21:00N 34°41' E 135°12'0 0.0
2018-Jun-15 20:30N 34°41' E 135°12'1 0.1
2018-Jun-15 08:26N 34°41' E 135°13'1 1.3
2018-Jun-15 08:00N 34°41' E 135°12'0 0.2
2018-Jun-15 07:30N 34°41' E 135°12'0 0.1
2018-Jun-15 03:17N 34°41' E 135°12'2 8.3
2018-Jun-15 03:00N 34°40' E 135°15'1 1.9
2018-Jun-15 02:30N 34°39' E 135°15'1 1.6
2018-Jun-15 02:00N 34°40' E 135°15'1 2.7
2018-Jun-15 01:29N 34°40' E 135°13'0 0.0
2018-Jun-15 01:00N 34°40' E 135°13'0 0.0
2018-Jun-15 00:30N 34°40' E 135°13'0 0.0
2018-Jun-15 00:00N 34°40' E 135°13'0 0.0
2018-Jun-14 23:30N 34°40' E 135°13'2 3.3
2018-Jun-14 23:00N 34°41' E 135°15'2 3.9
2018-Jun-14 22:30N 34°41' E 135°17'1 2.1
2018-Jun-14 22:00N 34°40' E 135°18'0 0.8
2018-Jun-14 21:30N 34°41' E 135°18'4 8.6
2018-Jun-14 21:00N 34°41' E 135°12'0 0.6
2018-Jun-14 20:30N 34°41' E 135°12'0 0.0
2018-Jun-13 23:12N 34°41' E 135°12'2 8.8
2018-Jun-13 23:00N 34°41' E 135°14'1 2.2
2018-Jun-13 22:30N 34°41' E 135°16'1 2.0
2018-Jun-13 22:00N 34°40' E 135°15'1 2.4
2018-Jun-13 21:30N 34°40' E 135°14'0 0.2
2018-Jun-13 20:43N 34°40' E 135°14'0 0.0
2018-Jun-13 20:25N 34°40' E 135°14'0 0.0
2018-Jun-13 19:55N 34°40' E 135°14'0 0.0
2018-Jun-13 19:25N 34°40' E 135°14'0 0.0
2018-Jun-13 18:55N 34°40' E 135°14'0 0.0
2018-Jun-13 18:19N 34°40' E 135°14'0 0.0
2018-Jun-13 17:55N 34°40' E 135°14'0 0.0
2018-Jun-13 17:25N 34°40' E 135°14'0 0.0
2018-Jun-13 16:54N 34°40' E 135°14'1 2.2
2018-Jun-13 16:30N 34°39' E 135°15'0 0.7
2018-Jun-13 15:58N 34°40' E 135°14'0 0.0
2018-Jun-13 15:04N 34°40' E 135°14'0 0.0
2018-Jun-13 14:58N 34°40' E 135°14'0 0.3
2018-Jun-13 14:30N 34°40' E 135°14'1 1.2
2018-Jun-13 14:00N 34°40' E 135°15'1 2.2
2018-Jun-13 13:30N 34°39' E 135°16'2 3.3
2018-Jun-13 13:00N 34°40' E 135°14'0 0.2
2018-Jun-13 12:30N 34°40' E 135°14'0 0.3
2018-Jun-13 12:00N 34°40' E 135°14'0 0.8
2018-Jun-13 11:30N 34°40' E 135°15'1 2.1
2018-Jun-13 10:56N 34°40' E 135°13'0 0.0
2018-Jun-13 10:14N 34°40' E 135°13'0 0.0
2018-Jun-13 09:56N 34°40' E 135°13'0 0.0
2018-Jun-13 09:26N 34°40' E 135°13'0 0.0
2018-Jun-13 08:50N 34°40' E 135°13'0 0.0
2018-Jun-13 08:20N 34°40' E 135°13'0 0.0
2018-Jun-13 07:56N 34°40' E 135°13'0 0.0
2018-Jun-13 07:26N 34°40' E 135°13'0 0.0
2018-Jun-13 06:56N 34°40' E 135°13'0 0.0
2018-Jun-13 06:26N 34°40' E 135°13'2 4.0
2018-Jun-13 05:58N 34°41' E 135°15'2 4.5
2018-Jun-13 05:30N 34°41' E 135°13'0 0.8
2018-Jun-13 04:58N 34°41' E 135°12'0 0.0
2018-Jun-13 04:28N 34°41' E 135°12'0 0.0
2018-Jun-13 03:58N 34°41' E 135°12'0 0.0
2018-Jun-13 03:28N 34°41' E 135°12'0 0.0
2018-Jun-13 02:59N 34°41' E 135°12'0 0.0
2018-Jun-13 02:29N 34°41' E 135°12'0 0.0
2018-Jun-13 01:59N 34°41' E 135°12'0 0.0
2018-Jun-13 01:22N 34°41' E 135°12'0 0.0
2018-Jun-13 00:58N 34°41' E 135°12'2 4.4
2018-Jun-13 00:30N 34°40' E 135°14'0 0.4
2018-Jun-13 00:00N 34°40' E 135°14'1 2.9
2018-Jun-12 23:30N 34°39' E 135°16'1 2.0
2018-Jun-12 23:00N 34°39' E 135°15'0 0.0
2018-Jun-12 22:30N 34°39' E 135°15'0 0.0
2018-Jun-12 22:00N 34°39' E 135°15'0 0.0
2018-Jun-12 21:30N 34°39' E 135°15'2 4.0
2018-Jun-12 21:00N 34°41' E 135°15'3 5.0
2018-Jun-12 20:30N 34°41' E 135°12'0 0.0
2018-Jun-12 20:00N 34°41' E 135°12'0 0.0
2018-Jun-12 09:59N 34°41' E 135°12'3 5.4
2018-Jun-12 09:30N 34°41' E 135°16'1 1.1
2018-Jun-12 09:00N 34°40' E 135°15'1 1.9
2018-Jun-12 08:30N 34°39' E 135°15'1 1.6
2018-Jun-12 08:00N 34°40' E 135°15'2 5.0
2018-Jun-12 07:30N 34°41' E 135°17'0 0.1
2018-Jun-12 07:00N 34°41' E 135°17'4 7.9
2018-Jun-12 06:30N 34°41' E 135°13'0 0.8
2018-Jun-12 05:56N 34°41' E 135°12'0 0.0
2018-Jun-12 05:26N 34°41' E 135°12'0 0.0
2018-Jun-12 04:56N 34°41' E 135°12'0 0.0
2018-Jun-12 04:20N 34°41' E 135°12'0 0.0
2018-Jun-12 03:56N 34°41' E 135°12'0 0.0
2018-Jun-12 03:26N 34°41' E 135°12'0 0.0
2018-Jun-12 02:44N 34°41' E 135°12'0 0.0
2018-Jun-12 02:26N 34°41' E 135°12'0 0.0
2018-Jun-12 01:50N 34°41' E 135°12'0 0.0
2018-Jun-12 01:26N 34°41' E 135°12'0 0.0
2018-Jun-12 00:56N 34°41' E 135°12'0 0.0
2018-Jun-12 00:26N 34°41' E 135°12'0 0.0
2018-Jun-11 23:56N 34°41' E 135°12'0 0.0
2018-Jun-11 23:26N 34°41' E 135°12'1 1.4
2018-Jun-11 23:00N 34°41' E 135°13'2 3.8
2018-Jun-11 22:31N 34°41' E 135°15'1 2.0
2018-Jun-11 22:00N 34°40' E 135°15'0 0.7
2018-Jun-11 21:30N 34°40' E 135°15'3 5.3
2018-Jun-11 21:00N 34°41' E 135°12'0 0.0
2018-Jun-11 20:28N 34°41' E 135°12'0 0.0
2018-Jun-11 20:00N 34°41' E 135°12'0 0.0
2018-Jun-11 19:30N 34°41' E 135°12'0 0.0
2018-Jun-11 18:59N 34°41' E 135°12'0 0.0
2018-Jun-11 18:30N 34°41' E 135°12'0 0.0
2018-Jun-11 17:57N 34°41' E 135°12'0 0.0
2018-Jun-11 17:29N 34°41' E 135°12'1 3.0
2018-Jun-11 17:00N 34°41' E 135°14'2 3.3
2018-Jun-11 16:30N 34°39' E 135°15'0 0.7
2018-Jun-11 16:00N 34°40' E 135°15'1 1.9
2018-Jun-11 15:30N 34°40' E 135°14'0 0.0
2018-Jun-11 15:00N 34°40' E 135°14'0 0.0
2018-Jun-11 14:30N 34°40' E 135°14'0 0.0
2018-Jun-11 14:00N 34°40' E 135°14'0 0.0
2018-Jun-11 13:30N 34°40' E 135°14'0 0.0
2018-Jun-11 13:00N 34°40' E 135°14'1 1.0
2018-Jun-11 12:30N 34°41' E 135°14'1 2.8
2018-Jun-11 11:59N 34°41' E 135°12'0 0.0
2018-Jun-11 11:30N 34°41' E 135°12'0 0.0
2018-Jun-11 10:59N 34°41' E 135°12'0 0.0
2018-Jun-11 10:30N 34°41' E 135°12'0 0.0
2018-Jun-11 09:59N 34°41' E 135°12'2 4.2
2018-Jun-11 09:30N 34°41' E 135°15'1 1.8
2018-Jun-11 09:00N 34°42' E 135°15'1 1.9
2018-Jun-11 08:30N 34°41' E 135°14'3 5.8
2018-Jun-11 08:00N 34°41' E 135°17'0 0.3
2018-Jun-11 07:30N 34°41' E 135°17'1 2.5
2018-Jun-11 07:00N 34°40' E 135°18'2 4.6
2018-Jun-11 06:30N 34°41' E 135°16'3 5.8
2018-Jun-11 06:00N 34°41' E 135°12'0 0.0
2018-Jun-11 05:30N 34°41' E 135°12'0 0.0
2018-Jun-11 05:00N 34°41' E 135°12'0 0.0
2018-Jun-11 04:30N 34°41' E 135°12'0 0.0
2018-Jun-11 04:00N 34°41' E 135°12'0 0.0
2018-Jun-11 03:30N 34°41' E 135°12'0 0.0
2018-Jun-11 03:00N 34°41' E 135°12'0 0.0
2018-Jun-11 02:27N 34°41' E 135°12'0 0.0
2018-Jun-11 01:59N 34°41' E 135°12'0 0.0
2018-Jun-11 01:28N 34°41' E 135°12'0 0.0
2018-Jun-11 01:00N 34°41' E 135°12'0 0.0
2018-Jun-11 00:30N 34°41' E 135°12'0 0.0
2018-Jun-10 23:59N 34°41' E 135°12'1 1.1
2018-Jun-10 23:30N 34°41' E 135°13'2 4.7
2018-Jun-10 23:00N 34°42' E 135°15'1 2.4
2018-Jun-10 22:30N 34°41' E 135°15'1 1.2
2018-Jun-10 22:00N 34°40' E 135°15'3 4.7
2018-Jun-10 21:26N 34°41' E 135°12'0 0.0
2018-Jun-10 21:00N 34°41' E 135°12'0 0.0
2018-Jun-10 20:30N 34°41' E 135°12'0 0.0
2018-Jun-10 20:00N 34°41' E 135°12'1 0.1
2018-Jun-09 23:02N 34°41' E 135°14'012.2
2018-Jun-09 23:00N 34°41' E 135°14'1 2.1
2018-Jun-09 22:30N 34°42' E 135°15'2 3.6
2018-Jun-09 22:00N 34°40' E 135°15'2 3.3
2018-Jun-09 21:28N 34°41' E 135°13'1 1.9
2018-Jun-09 20:58N 34°41' E 135°12'0 0.0
2018-Jun-09 14:09N 34°41' E 135°12'1 8.4
2018-Jun-09 14:00N 34°41' E 135°14'1 2.3
2018-Jun-09 13:31N 34°40' E 135°14'1 2.6
2018-Jun-09 13:01N 34°39' E 135°15'1 1.5
2018-Jun-09 12:30N 34°40' E 135°15'0 0.8
2018-Jun-09 12:00N 34°39' E 135°15'1 2.1
2018-Jun-09 11:30N 34°39' E 135°16'2 4.4
2018-Jun-09 11:00N 34°40' E 135°14'2 3.7
2018-Jun-09 10:28N 34°41' E 135°12'0 0.0
2018-Jun-09 10:00N 34°41' E 135°12'0 0.0
2018-Jun-09 09:31N 34°41' E 135°12'0 0.0
2018-Jun-09 09:00N 34°41' E 135°12'0 0.3
2018-Jun-09 08:30N 34°41' E 135°12'2 3.8
2018-Jun-09 08:01N 34°40' E 135°14'1 2.5
2018-Jun-09 07:30N 34°41' E 135°13'1 1.9
2018-Jun-09 07:00N 34°41' E 135°12'0 0.0
2018-Jun-09 06:31N 34°41' E 135°12'0 0.0
2018-Jun-09 06:00N 34°41' E 135°12'0 0.0
2018-Jun-09 05:28N 34°41' E 135°12'0 0.0
2018-Jun-09 04:58N 34°41' E 135°12'0 0.0
2018-Jun-09 04:30N 34°41' E 135°12'0 0.0
2018-Jun-09 04:01N 34°41' E 135°12'0 0.0
2018-Jun-09 03:31N 34°41' E 135°12'0 0.0
2018-Jun-09 03:00N 34°41' E 135°12'0 0.0
2018-Jun-09 02:30N 34°41' E 135°12'1 2.0
2018-Jun-09 02:00N 34°41' E 135°13'1 1.1
2018-Jun-09 01:30N 34°41' E 135°14'1 2.0
2018-Jun-09 01:00N 34°40' E 135°15'1 2.4
2018-Jun-09 00:29N 34°40' E 135°13'0 0.0
2018-Jun-09 00:00N 34°40' E 135°13'2 3.1
2018-Jun-08 23:30N 34°40' E 135°15'2 4.1
2018-Jun-08 23:00N 34°41' E 135°17'  

Dump ship's entire track history